sensor_id;sensor_type;location;lat;lon;timestamp;temperature;humidity
74384;DHT22;62824;52.994;-3.936;2023-06-24T00:01:15;17.50;99.90
74384;DHT22;62824;52.994;-3.936;2023-06-24T00:03:41;17.50;99.90
74384;DHT22;62824;52.994;-3.936;2023-06-24T00:06:15;17.50;99.90
74384;DHT22;62824;52.994;-3.936;2023-06-24T00:08:50;17.50;99.90
74384;DHT22;62824;52.994;-3.936;2023-06-24T00:11:16;17.50;99.90
74384;DHT22;62824;52.994;-3.936;2023-06-24T00:13:43;17.50;99.90
74384;DHT22;62824;52.994;-3.936;2023-06-24T00:16:10;17.50;99.90
74384;DHT22;62824;52.994;-3.936;2023-06-24T00:18:37;17.50;99.90
74384;DHT22;62824;52.994;-3.936;2023-06-24T00:21:03;17.50;99.90
74384;DHT22;62824;52.994;-3.936;2023-06-24T00:23:30;17.50;99.90
74384;DHT22;62824;52.994;-3.936;2023-06-24T00:26:00;17.50;99.90
74384;DHT22;62824;52.994;-3.936;2023-06-24T00:28:26;17.40;99.90
74384;DHT22;62824;52.994;-3.936;2023-06-24T00:30:52;17.40;99.90
74384;DHT22;62824;52.994;-3.936;2023-06-24T00:33:19;17.50;99.90
74384;DHT22;62824;52.994;-3.936;2023-06-24T00:35:48;17.40;99.90
74384;DHT22;62824;52.994;-3.936;2023-06-24T00:38:13;17.40;99.90
74384;DHT22;62824;52.994;-3.936;2023-06-24T00:40:39;17.40;99.90
74384;DHT22;62824;52.994;-3.936;2023-06-24T00:43:05;17.40;99.90
74384;DHT22;62824;52.994;-3.936;2023-06-24T00:45:32;17.40;99.90
74384;DHT22;62824;52.994;-3.936;2023-06-24T00:47:58;17.40;99.90
74384;DHT22;62824;52.994;-3.936;2023-06-24T00:50:24;17.40;99.90
74384;DHT22;62824;52.994;-3.936;2023-06-24T00:52:50;17.40;99.90
74384;DHT22;62824;52.994;-3.936;2023-06-24T00:55:17;17.40;99.90
74384;DHT22;62824;52.994;-3.936;2023-06-24T00:57:47;17.40;99.90
74384;DHT22;62824;52.994;-3.936;2023-06-24T01:00:18;17.40;99.90
74384;DHT22;62824;52.994;-3.936;2023-06-24T01:02:47;17.40;99.90
74384;DHT22;62824;52.994;-3.936;2023-06-24T01:05:13;17.40;99.90
74384;DHT22;62824;52.994;-3.936;2023-06-24T01:07:40;17.40;99.90
74384;DHT22;62824;52.994;-3.936;2023-06-24T01:10:08;17.40;99.90
74384;DHT22;62824;52.994;-3.936;2023-06-24T01:12:38;17.50;99.90
74384;DHT22;62824;52.994;-3.936;2023-06-24T01:15:09;17.40;99.90
74384;DHT22;62824;52.994;-3.936;2023-06-24T01:23:49;17.50;99.90
74384;DHT22;62824;52.994;-3.936;2023-06-24T01:26:32;17.40;99.90
74384;DHT22;62824;52.994;-3.936;2023-06-24T01:29:09;17.50;99.90
74384;DHT22;62824;52.994;-3.936;2023-06-24T01:34:23;17.50;99.90
74384;DHT22;62824;52.994;-3.936;2023-06-24T01:39:32;17.50;99.90
74384;DHT22;62824;52.994;-3.936;2023-06-24T01:42:08;17.50;99.90
74384;DHT22;62824;52.994;-3.936;2023-06-24T01:44:35;17.50;99.90
74384;DHT22;62824;52.994;-3.936;2023-06-24T01:47:05;17.50;99.90
74384;DHT22;62824;52.994;-3.936;2023-06-24T01:49:36;17.40;99.90
74384;DHT22;62824;52.994;-3.936;2023-06-24T01:52:05;17.50;99.90
74384;DHT22;62824;52.994;-3.936;2023-06-24T01:54:34;17.50;99.90
74384;DHT22;62824;52.994;-3.936;2023-06-24T01:57:02;17.60;99.90
74384;DHT22;62824;52.994;-3.936;2023-06-24T01:59:29;17.60;99.90
74384;DHT22;62824;52.994;-3.936;2023-06-24T02:01:57;17.60;99.90
74384;DHT22;62824;52.994;-3.936;2023-06-24T02:04:24;17.60;99.90
74384;DHT22;62824;52.994;-3.936;2023-06-24T02:06:51;17.50;99.90
74384;DHT22;62824;52.994;-3.936;2023-06-24T02:09:20;17.50;99.90
74384;DHT22;62824;52.994;-3.936;2023-06-24T02:11:47;17.50;99.90
74384;DHT22;62824;52.994;-3.936;2023-06-24T02:14:16;17.50;99.90
74384;DHT22;62824;52.994;-3.936;2023-06-24T02:16:44;17.50;99.90
74384;DHT22;62824;52.994;-3.936;2023-06-24T02:19:11;17.60;99.90
74384;DHT22;62824;52.994;-3.936;2023-06-24T02:21:39;17.60;99.90
74384;DHT22;62824;52.994;-3.936;2023-06-24T02:24:07;17.50;99.90
74384;DHT22;62824;52.994;-3.936;2023-06-24T02:26:34;17.50;99.90
74384;DHT22;62824;52.994;-3.936;2023-06-24T02:29:03;17.50;99.90
74384;DHT22;62824;52.994;-3.936;2023-06-24T02:31:29;17.50;99.90
74384;DHT22;62824;52.994;-3.936;2023-06-24T02:33:55;17.50;99.90
74384;DHT22;62824;52.994;-3.936;2023-06-24T02:36:21;17.40;99.90
74384;DHT22;62824;52.994;-3.936;2023-06-24T02:38:47;17.40;99.90
74384;DHT22;62824;52.994;-3.936;2023-06-24T02:41:12;17.40;99.90
74384;DHT22;62824;52.994;-3.936;2023-06-24T02:43:38;17.40;99.90
74384;DHT22;62824;52.994;-3.936;2023-06-24T02:46:05;17.40;99.90
74384;DHT22;62824;52.994;-3.936;2023-06-24T02:48:33;17.40;99.90
74384;DHT22;62824;52.994;-3.936;2023-06-24T02:51:02;17.40;99.90
74384;DHT22;62824;52.994;-3.936;2023-06-24T02:53:28;17.50;99.90
74384;DHT22;62824;52.994;-3.936;2023-06-24T02:55:55;17.40;99.90
74384;DHT22;62824;52.994;-3.936;2023-06-24T02:58:22;17.40;99.90
74384;DHT22;62824;52.994;-3.936;2023-06-24T03:00:48;17.50;99.90
74384;DHT22;62824;52.994;-3.936;2023-06-24T03:03:15;17.50;99.90
74384;DHT22;62824;52.994;-3.936;2023-06-24T03:05:42;17.40;99.90
74384;DHT22;62824;52.994;-3.936;2023-06-24T03:08:10;17.50;99.90
74384;DHT22;62824;52.994;-3.936;2023-06-24T03:10:36;17.40;99.90
74384;DHT22;62824;52.994;-3.936;2023-06-24T03:13:03;17.40;99.90
74384;DHT22;62824;52.994;-3.936;2023-06-24T03:15:28;17.40;99.90
74384;DHT22;62824;52.994;-3.936;2023-06-24T03:17:55;17.40;99.90
74384;DHT22;62824;52.994;-3.936;2023-06-24T03:20:20;17.40;99.90
74384;DHT22;62824;52.994;-3.936;2023-06-24T03:22:46;17.40;99.90
74384;DHT22;62824;52.994;-3.936;2023-06-24T03:25:12;17.40;99.90
74384;DHT22;62824;52.994;-3.936;2023-06-24T03:27:38;17.40;99.90
74384;DHT22;62824;52.994;-3.936;2023-06-24T03:30:04;17.40;99.90
74384;DHT22;62824;52.994;-3.936;2023-06-24T03:32:30;17.40;99.90
74384;DHT22;62824;52.994;-3.936;2023-06-24T03:34:56;17.40;99.90
74384;DHT22;62824;52.994;-3.936;2023-06-24T03:37:22;17.50;99.90
74384;DHT22;62824;52.994;-3.936;2023-06-24T03:39:47;17.40;99.90
74384;DHT22;62824;52.994;-3.936;2023-06-24T03:42:13;17.40;99.90
74384;DHT22;62824;52.994;-3.936;2023-06-24T03:44:39;17.40;99.90
74384;DHT22;62824;52.994;-3.936;2023-06-24T03:47:04;17.40;99.90
74384;DHT22;62824;52.994;-3.936;2023-06-24T03:49:30;17.40;99.90
74384;DHT22;62824;52.994;-3.936;2023-06-24T03:51:56;17.40;99.90
74384;DHT22;62824;52.994;-3.936;2023-06-24T03:54:21;17.40;99.90
74384;DHT22;62824;52.994;-3.936;2023-06-24T03:56:47;17.40;99.90
74384;DHT22;62824;52.994;-3.936;2023-06-24T03:59:13;17.40;99.90
74384;DHT22;62824;52.994;-3.936;2023-06-24T04:01:39;17.40;99.90
74384;DHT22;62824;52.994;-3.936;2023-06-24T04:04:05;17.40;99.90
74384;DHT22;62824;52.994;-3.936;2023-06-24T04:06:30;17.40;99.90
74384;DHT22;62824;52.994;-3.936;2023-06-24T04:08:56;17.40;99.90
74384;DHT22;62824;52.994;-3.936;2023-06-24T04:11:22;17.40;99.90
74384;DHT22;62824;52.994;-3.936;2023-06-24T04:13:48;17.40;99.90
74384;DHT22;62824;52.994;-3.936;2023-06-24T04:16:14;17.40;99.90
74384;DHT22;62824;52.994;-3.936;2023-06-24T04:18:40;17.50;99.90
74384;DHT22;62824;52.994;-3.936;2023-06-24T04:21:06;17.50;99.90
74384;DHT22;62824;52.994;-3.936;2023-06-24T04:23:32;17.50;99.90
74384;DHT22;62824;52.994;-3.936;2023-06-24T04:25:59;17.40;99.90
74384;DHT22;62824;52.994;-3.936;2023-06-24T04:28:24;17.40;99.90
74384;DHT22;62824;52.994;-3.936;2023-06-24T04:30:51;17.50;99.90
74384;DHT22;62824;52.994;-3.936;2023-06-24T04:33:17;17.40;99.90
74384;DHT22;62824;52.994;-3.936;2023-06-24T04:35:43;17.50;99.90
74384;DHT22;62824;52.994;-3.936;2023-06-24T04:38:09;17.50;99.90
74384;DHT22;62824;52.994;-3.936;2023-06-24T04:40:35;17.50;99.90
74384;DHT22;62824;52.994;-3.936;2023-06-24T04:43:01;17.50;99.90
74384;DHT22;62824;52.994;-3.936;2023-06-24T04:45:27;17.50;99.90
74384;DHT22;62824;52.994;-3.936;2023-06-24T04:47:53;17.50;99.90
74384;DHT22;62824;52.994;-3.936;2023-06-24T04:50:19;17.50;99.90
74384;DHT22;62824;52.994;-3.936;2023-06-24T04:52:44;17.40;99.90
74384;DHT22;62824;52.994;-3.936;2023-06-24T04:55:10;17.40;99.90
74384;DHT22;62824;52.994;-3.936;2023-06-24T04:57:36;17.40;99.90
74384;DHT22;62824;52.994;-3.936;2023-06-24T05:00:02;17.40;99.90
74384;DHT22;62824;52.994;-3.936;2023-06-24T05:02:28;17.40;99.90
74384;DHT22;62824;52.994;-3.936;2023-06-24T05:04:54;17.40;99.90
74384;DHT22;62824;52.994;-3.936;2023-06-24T05:07:20;17.40;99.90
74384;DHT22;62824;52.994;-3.936;2023-06-24T05:09:49;17.40;99.90
74384;DHT22;62824;52.994;-3.936;2023-06-24T05:12:16;17.40;99.90
74384;DHT22;62824;52.994;-3.936;2023-06-24T05:14:42;17.40;99.90
74384;DHT22;62824;52.994;-3.936;2023-06-24T05:17:08;17.40;99.90
74384;DHT22;62824;52.994;-3.936;2023-06-24T05:19:33;17.40;99.90
74384;DHT22;62824;52.994;-3.936;2023-06-24T05:21:59;17.40;99.90
74384;DHT22;62824;52.994;-3.936;2023-06-24T05:24:25;17.30;99.90
74384;DHT22;62824;52.994;-3.936;2023-06-24T05:26:51;17.30;99.90
74384;DHT22;62824;52.994;-3.936;2023-06-24T05:29:18;17.40;99.90
74384;DHT22;62824;52.994;-3.936;2023-06-24T05:31:43;17.30;99.90
74384;DHT22;62824;52.994;-3.936;2023-06-24T05:34:09;17.30;99.90
74384;DHT22;62824;52.994;-3.936;2023-06-24T05:36:35;17.30;99.90
74384;DHT22;62824;52.994;-3.936;2023-06-24T05:39:01;17.30;99.90
74384;DHT22;62824;52.994;-3.936;2023-06-24T05:41:27;17.30;99.90
74384;DHT22;62824;52.994;-3.936;2023-06-24T05:44:09;17.30;99.90
74384;DHT22;62824;52.994;-3.936;2023-06-24T05:46:38;17.30;99.90
74384;DHT22;62824;52.994;-3.936;2023-06-24T05:49:03;17.30;99.90
74384;DHT22;62824;52.994;-3.936;2023-06-24T05:51:29;17.30;99.90
74384;DHT22;62824;52.994;-3.936;2023-06-24T05:53:55;17.30;99.90
74384;DHT22;62824;52.994;-3.936;2023-06-24T05:56:21;17.30;99.90
74384;DHT22;62824;52.994;-3.936;2023-06-24T05:58:48;17.30;99.90
74384;DHT22;62824;52.994;-3.936;2023-06-24T06:01:14;17.30;99.90
74384;DHT22;62824;52.994;-3.936;2023-06-24T06:03:40;17.30;99.90
74384;DHT22;62824;52.994;-3.936;2023-06-24T06:06:06;17.20;99.90
74384;DHT22;62824;52.994;-3.936;2023-06-24T06:08:33;17.20;99.90
74384;DHT22;62824;52.994;-3.936;2023-06-24T06:10:59;17.20;99.90
74384;DHT22;62824;52.994;-3.936;2023-06-24T06:13:28;17.30;99.90
74384;DHT22;62824;52.994;-3.936;2023-06-24T06:15:54;17.30;99.90
74384;DHT22;62824;52.994;-3.936;2023-06-24T06:18:19;17.30;99.90
74384;DHT22;62824;52.994;-3.936;2023-06-24T06:20:45;17.30;99.90
74384;DHT22;62824;52.994;-3.936;2023-06-24T06:23:12;17.30;99.90
74384;DHT22;62824;52.994;-3.936;2023-06-24T06:25:38;17.30;99.90
74384;DHT22;62824;52.994;-3.936;2023-06-24T06:28:04;17.30;99.90
74384;DHT22;62824;52.994;-3.936;2023-06-24T06:30:30;17.30;99.90
74384;DHT22;62824;52.994;-3.936;2023-06-24T06:32:56;17.30;99.90
74384;DHT22;62824;52.994;-3.936;2023-06-24T06:38:13;17.30;99.90
74384;DHT22;62824;52.994;-3.936;2023-06-24T06:40:39;17.30;99.90
74384;DHT22;62824;52.994;-3.936;2023-06-24T06:43:06;17.30;99.90
74384;DHT22;62824;52.994;-3.936;2023-06-24T06:45:32;17.30;99.90
74384;DHT22;62824;52.994;-3.936;2023-06-24T06:47:57;17.30;99.90
74384;DHT22;62824;52.994;-3.936;2023-06-24T06:50:23;17.30;99.90
74384;DHT22;62824;52.994;-3.936;2023-06-24T06:52:49;17.30;99.90
74384;DHT22;62824;52.994;-3.936;2023-06-24T06:55:15;17.30;99.90
74384;DHT22;62824;52.994;-3.936;2023-06-24T06:57:40;17.30;99.90
74384;DHT22;62824;52.994;-3.936;2023-06-24T07:00:07;17.30;99.90
74384;DHT22;62824;52.994;-3.936;2023-06-24T07:02:33;17.30;99.90
74384;DHT22;62824;52.994;-3.936;2023-06-24T07:04:59;17.30;99.90
74384;DHT22;62824;52.994;-3.936;2023-06-24T07:07:26;17.30;99.90
74384;DHT22;62824;52.994;-3.936;2023-06-24T07:09:52;17.30;99.90
74384;DHT22;62824;52.994;-3.936;2023-06-24T07:12:18;17.30;99.90
74384;DHT22;62824;52.994;-3.936;2023-06-24T07:14:46;17.30;99.90
74384;DHT22;62824;52.994;-3.936;2023-06-24T07:17:12;17.30;99.90
74384;DHT22;62824;52.994;-3.936;2023-06-24T07:19:37;17.30;99.90
74384;DHT22;62824;52.994;-3.936;2023-06-24T07:22:03;17.30;99.90
74384;DHT22;62824;52.994;-3.936;2023-06-24T07:24:29;17.30;99.90
74384;DHT22;62824;52.994;-3.936;2023-06-24T07:26:55;17.40;99.90
74384;DHT22;62824;52.994;-3.936;2023-06-24T07:29:21;17.40;99.90
74384;DHT22;62824;52.994;-3.936;2023-06-24T07:31:47;17.40;99.90
74384;DHT22;62824;52.994;-3.936;2023-06-24T07:34:12;17.50;99.90
74384;DHT22;62824;52.994;-3.936;2023-06-24T07:36:38;17.40;99.90
74384;DHT22;62824;52.994;-3.936;2023-06-24T07:39:04;17.50;99.90
74384;DHT22;62824;52.994;-3.936;2023-06-24T07:41:32;17.50;99.90
74384;DHT22;62824;52.994;-3.936;2023-06-24T07:43:57;17.50;99.90
74384;DHT22;62824;52.994;-3.936;2023-06-24T07:46:23;17.50;99.90
74384;DHT22;62824;52.994;-3.936;2023-06-24T07:48:52;17.50;99.90
74384;DHT22;62824;52.994;-3.936;2023-06-24T07:51:18;17.50;99.90
74384;DHT22;62824;52.994;-3.936;2023-06-24T07:53:44;17.50;99.90
74384;DHT22;62824;52.994;-3.936;2023-06-24T07:56:10;17.50;99.90
74384;DHT22;62824;52.994;-3.936;2023-06-24T07:58:36;17.50;99.90
74384;DHT22;62824;52.994;-3.936;2023-06-24T08:01:04;17.50;99.90
74384;DHT22;62824;52.994;-3.936;2023-06-24T08:03:30;17.50;99.90
74384;DHT22;62824;52.994;-3.936;2023-06-24T08:05:55;17.60;99.90
74384;DHT22;62824;52.994;-3.936;2023-06-24T08:08:22;17.60;99.90
74384;DHT22;62824;52.994;-3.936;2023-06-24T08:10:48;17.50;99.90
74384;DHT22;62824;52.994;-3.936;2023-06-24T08:13:14;17.50;99.90
74384;DHT22;62824;52.994;-3.936;2023-06-24T08:15:39;17.50;99.90
74384;DHT22;62824;52.994;-3.936;2023-06-24T08:18:05;17.50;99.90
74384;DHT22;62824;52.994;-3.936;2023-06-24T08:20:31;17.50;99.90
74384;DHT22;62824;52.994;-3.936;2023-06-24T08:22:57;17.50;99.90
74384;DHT22;62824;52.994;-3.936;2023-06-24T08:25:23;17.60;99.90
74384;DHT22;62824;52.994;-3.936;2023-06-24T08:27:49;17.60;99.90
74384;DHT22;62824;52.994;-3.936;2023-06-24T08:30:15;17.70;99.90
74384;DHT22;62824;52.994;-3.936;2023-06-24T08:32:41;17.70;99.90
74384;DHT22;62824;52.994;-3.936;2023-06-24T08:35:08;17.70;99.90
74384;DHT22;62824;52.994;-3.936;2023-06-24T08:37:36;17.80;99.90
74384;DHT22;62824;52.994;-3.936;2023-06-24T08:40:03;17.80;99.90
74384;DHT22;62824;52.994;-3.936;2023-06-24T08:42:30;17.80;99.90
74384;DHT22;62824;52.994;-3.936;2023-06-24T08:44:56;17.80;99.90
74384;DHT22;62824;52.994;-3.936;2023-06-24T08:47:24;17.80;99.90
74384;DHT22;62824;52.994;-3.936;2023-06-24T08:49:55;17.80;99.90
74384;DHT22;62824;52.994;-3.936;2023-06-24T08:52:26;17.70;99.90
74384;DHT22;62824;52.994;-3.936;2023-06-24T08:54:59;17.70;99.90
74384;DHT22;62824;52.994;-3.936;2023-06-24T08:57:26;17.70;99.90
74384;DHT22;62824;52.994;-3.936;2023-06-24T08:59:53;17.70;99.90
74384;DHT22;62824;52.994;-3.936;2023-06-24T09:02:19;17.70;99.90
74384;DHT22;62824;52.994;-3.936;2023-06-24T09:04:45;17.70;99.90
74384;DHT22;62824;52.994;-3.936;2023-06-24T09:07:26;17.80;99.90
74384;DHT22;62824;52.994;-3.936;2023-06-24T09:09:53;17.80;99.90
74384;DHT22;62824;52.994;-3.936;2023-06-24T09:12:19;17.80;99.90
74384;DHT22;62824;52.994;-3.936;2023-06-24T09:14:49;17.70;99.90
74384;DHT22;62824;52.994;-3.936;2023-06-24T09:17:16;17.80;99.90
74384;DHT22;62824;52.994;-3.936;2023-06-24T09:19:42;17.80;99.90
74384;DHT22;62824;52.994;-3.936;2023-06-24T09:22:09;17.80;99.90
74384;DHT22;62824;52.994;-3.936;2023-06-24T09:24:43;17.80;99.90
74384;DHT22;62824;52.994;-3.936;2023-06-24T09:27:13;17.80;99.90
74384;DHT22;62824;52.994;-3.936;2023-06-24T09:29:40;17.90;99.90
74384;DHT22;62824;52.994;-3.936;2023-06-24T09:32:07;17.80;99.90
74384;DHT22;62824;52.994;-3.936;2023-06-24T09:34:33;17.80;99.90
74384;DHT22;62824;52.994;-3.936;2023-06-24T09:36:59;17.90;99.90
74384;DHT22;62824;52.994;-3.936;2023-06-24T09:39:26;17.90;99.90
74384;DHT22;62824;52.994;-3.936;2023-06-24T09:42:00;17.90;99.90
74384;DHT22;62824;52.994;-3.936;2023-06-24T09:44:29;17.80;99.90
74384;DHT22;62824;52.994;-3.936;2023-06-24T09:46:55;17.90;99.90
74384;DHT22;62824;52.994;-3.936;2023-06-24T09:49:22;17.80;99.90
74384;DHT22;62824;52.994;-3.936;2023-06-24T09:51:54;17.90;99.90
74384;DHT22;62824;52.994;-3.936;2023-06-24T09:54:21;17.80;99.90
74384;DHT22;62824;52.994;-3.936;2023-06-24T09:56:51;17.90;99.90
74384;DHT22;62824;52.994;-3.936;2023-06-24T09:59:19;17.90;99.90
74384;DHT22;62824;52.994;-3.936;2023-06-24T10:01:46;17.90;99.90
74384;DHT22;62824;52.994;-3.936;2023-06-24T10:04:16;17.90;99.90
74384;DHT22;62824;52.994;-3.936;2023-06-24T10:06:43;17.90;99.90
74384;DHT22;62824;52.994;-3.936;2023-06-24T10:09:09;17.90;99.90
74384;DHT22;62824;52.994;-3.936;2023-06-24T10:11:36;17.90;99.90
74384;DHT22;62824;52.994;-3.936;2023-06-24T10:14:02;17.90;99.90
74384;DHT22;62824;52.994;-3.936;2023-06-24T10:16:28;17.90;99.90
74384;DHT22;62824;52.994;-3.936;2023-06-24T10:19:00;17.90;99.90
74384;DHT22;62824;52.994;-3.936;2023-06-24T10:21:52;18.00;99.90
74384;DHT22;62824;52.994;-3.936;2023-06-24T10:24:34;18.00;99.90
74384;DHT22;62824;52.994;-3.936;2023-06-24T10:27:07;18.00;99.90
74384;DHT22;62824;52.994;-3.936;2023-06-24T10:29:37;18.00;99.90
74384;DHT22;62824;52.994;-3.936;2023-06-24T10:32:09;18.00;99.90
74384;DHT22;62824;52.994;-3.936;2023-06-24T10:37:11;18.00;99.90
74384;DHT22;62824;52.994;-3.936;2023-06-24T10:39:38;17.90;99.90
74384;DHT22;62824;52.994;-3.936;2023-06-24T10:44:50;18.00;99.90
74384;DHT22;62824;52.994;-3.936;2023-06-24T10:47:18;18.00;99.90
74384;DHT22;62824;52.994;-3.936;2023-06-24T10:49:44;18.10;99.90
74384;DHT22;62824;52.994;-3.936;2023-06-24T10:52:29;18.10;99.90
74384;DHT22;62824;52.994;-3.936;2023-06-24T10:55:21;18.00;99.90
74384;DHT22;62824;52.994;-3.936;2023-06-24T10:58:11;18.00;99.90
74384;DHT22;62824;52.994;-3.936;2023-06-24T11:00:39;18.00;99.90
74384;DHT22;62824;52.994;-3.936;2023-06-24T11:03:13;18.00;99.90
74384;DHT22;62824;52.994;-3.936;2023-06-24T11:05:43;18.00;99.90
74384;DHT22;62824;52.994;-3.936;2023-06-24T11:08:10;18.00;99.90
74384;DHT22;62824;52.994;-3.936;2023-06-24T11:10:46;18.10;99.90
74384;DHT22;62824;52.994;-3.936;2023-06-24T11:13:13;18.10;99.90
74384;DHT22;62824;52.994;-3.936;2023-06-24T11:15:41;18.10;99.90
74384;DHT22;62824;52.994;-3.936;2023-06-24T11:18:09;18.00;99.90
74384;DHT22;62824;52.994;-3.936;2023-06-24T11:20:54;18.10;99.90
74384;DHT22;62824;52.994;-3.936;2023-06-24T11:23:21;18.10;99.90
74384;DHT22;62824;52.994;-3.936;2023-06-24T11:25:53;18.10;99.90
74384;DHT22;62824;52.994;-3.936;2023-06-24T11:28:21;18.10;99.90
74384;DHT22;62824;52.994;-3.936;2023-06-24T11:30:50;18.10;99.90
74384;DHT22;62824;52.994;-3.936;2023-06-24T11:33:27;18.00;99.90
74384;DHT22;62824;52.994;-3.936;2023-06-24T11:35:53;18.00;99.90
74384;DHT22;62824;52.994;-3.936;2023-06-24T11:38:19;18.00;99.90
74384;DHT22;62824;52.994;-3.936;2023-06-24T11:40:48;18.10;99.90
74384;DHT22;62824;52.994;-3.936;2023-06-24T11:43:14;18.10;99.90
74384;DHT22;62824;52.994;-3.936;2023-06-24T11:45:40;18.10;99.90
74384;DHT22;62824;52.994;-3.936;2023-06-24T11:48:10;18.10;99.90
74384;DHT22;62824;52.994;-3.936;2023-06-24T11:50:36;18.10;99.90
74384;DHT22;62824;52.994;-3.936;2023-06-24T11:53:03;18.00;99.90
74384;DHT22;62824;52.994;-3.936;2023-06-24T11:55:31;18.10;99.90
74384;DHT22;62824;52.994;-3.936;2023-06-24T11:58:20;18.20;99.90
74384;DHT22;62824;52.994;-3.936;2023-06-24T12:01:01;18.30;99.90
74384;DHT22;62824;52.994;-3.936;2023-06-24T12:03:32;18.50;99.90
74384;DHT22;62824;52.994;-3.936;2023-06-24T12:08:40;18.70;99.90
74384;DHT22;62824;52.994;-3.936;2023-06-24T12:14:48;18.80;99.90
74384;DHT22;62824;52.994;-3.936;2023-06-24T12:17:17;18.90;99.90
74384;DHT22;62824;52.994;-3.936;2023-06-24T12:19:43;19.10;99.90
74384;DHT22;62824;52.994;-3.936;2023-06-24T12:22:09;19.40;99.90
74384;DHT22;62824;52.994;-3.936;2023-06-24T12:24:35;19.70;99.90
74384;DHT22;62824;52.994;-3.936;2023-06-24T12:27:00;19.80;99.90
74384;DHT22;62824;52.994;-3.936;2023-06-24T12:29:26;19.70;99.90
74384;DHT22;62824;52.994;-3.936;2023-06-24T12:31:52;19.80;99.90
74384;DHT22;62824;52.994;-3.936;2023-06-24T12:34:18;19.80;99.90
74384;DHT22;62824;52.994;-3.936;2023-06-24T12:36:43;19.80;99.90
74384;DHT22;62824;52.994;-3.936;2023-06-24T12:39:09;19.90;99.90
74384;DHT22;62824;52.994;-3.936;2023-06-24T12:41:35;20.00;99.90
74384;DHT22;62824;52.994;-3.936;2023-06-24T12:44:04;20.10;99.90
74384;DHT22;62824;52.994;-3.936;2023-06-24T12:46:29;20.10;99.90
74384;DHT22;62824;52.994;-3.936;2023-06-24T12:48:55;20.10;99.90
74384;DHT22;62824;52.994;-3.936;2023-06-24T12:51:22;20.20;99.90
74384;DHT22;62824;52.994;-3.936;2023-06-24T12:53:47;20.20;99.90
74384;DHT22;62824;52.994;-3.936;2023-06-24T12:56:14;20.20;99.90
74384;DHT22;62824;52.994;-3.936;2023-06-24T12:58:40;20.30;99.90
74384;DHT22;62824;52.994;-3.936;2023-06-24T13:01:05;20.20;99.90
74384;DHT22;62824;52.994;-3.936;2023-06-24T13:03:31;20.20;99.90
74384;DHT22;62824;52.994;-3.936;2023-06-24T13:05:57;20.20;99.90
74384;DHT22;62824;52.994;-3.936;2023-06-24T13:08:23;20.30;99.90
74384;DHT22;62824;52.994;-3.936;2023-06-24T13:10:49;20.20;99.90
74384;DHT22;62824;52.994;-3.936;2023-06-24T13:13:14;20.10;99.90
74384;DHT22;62824;52.994;-3.936;2023-06-24T13:15:40;20.00;99.90
74384;DHT22;62824;52.994;-3.936;2023-06-24T13:18:06;19.90;99.90
74384;DHT22;62824;52.994;-3.936;2023-06-24T13:20:34;19.90;99.90
74384;DHT22;62824;52.994;-3.936;2023-06-24T13:23:00;19.80;99.90
74384;DHT22;62824;52.994;-3.936;2023-06-24T13:25:26;19.70;99.90
74384;DHT22;62824;52.994;-3.936;2023-06-24T13:27:52;19.70;99.90
74384;DHT22;62824;52.994;-3.936;2023-06-24T13:30:18;19.60;99.90
74384;DHT22;62824;52.994;-3.936;2023-06-24T13:32:44;19.50;99.90
74384;DHT22;62824;52.994;-3.936;2023-06-24T13:35:11;19.50;99.90
74384;DHT22;62824;52.994;-3.936;2023-06-24T13:37:37;19.40;99.90
74384;DHT22;62824;52.994;-3.936;2023-06-24T13:40:04;19.40;99.90
74384;DHT22;62824;52.994;-3.936;2023-06-24T13:42:30;19.40;99.90
74384;DHT22;62824;52.994;-3.936;2023-06-24T13:44:56;19.40;99.90
74384;DHT22;62824;52.994;-3.936;2023-06-24T13:47:22;19.40;99.90
74384;DHT22;62824;52.994;-3.936;2023-06-24T13:49:48;19.40;99.90
74384;DHT22;62824;52.994;-3.936;2023-06-24T13:52:14;19.50;99.90
74384;DHT22;62824;52.994;-3.936;2023-06-24T13:54:39;19.50;99.90
74384;DHT22;62824;52.994;-3.936;2023-06-24T13:57:05;19.50;99.90
74384;DHT22;62824;52.994;-3.936;2023-06-24T13:59:32;19.50;99.90
74384;DHT22;62824;52.994;-3.936;2023-06-24T14:01:57;19.40;99.90
74384;DHT22;62824;52.994;-3.936;2023-06-24T14:04:23;19.50;99.90
74384;DHT22;62824;52.994;-3.936;2023-06-24T14:06:49;19.40;99.90
74384;DHT22;62824;52.994;-3.936;2023-06-24T14:09:15;19.50;99.90
74384;DHT22;62824;52.994;-3.936;2023-06-24T14:11:41;19.50;99.90
74384;DHT22;62824;52.994;-3.936;2023-06-24T14:14:07;19.50;99.90
74384;DHT22;62824;52.994;-3.936;2023-06-24T14:16:32;19.50;99.90
74384;DHT22;62824;52.994;-3.936;2023-06-24T14:18:58;19.60;99.90
74384;DHT22;62824;52.994;-3.936;2023-06-24T14:24:46;19.60;99.90
74384;DHT22;62824;52.994;-3.936;2023-06-24T14:27:12;19.50;99.90
74384;DHT22;62824;52.994;-3.936;2023-06-24T14:29:38;19.50;99.90
74384;DHT22;62824;52.994;-3.936;2023-06-24T14:32:04;19.60;99.90
74384;DHT22;62824;52.994;-3.936;2023-06-24T14:34:29;19.70;99.90
74384;DHT22;62824;52.994;-3.936;2023-06-24T14:36:56;19.70;99.90
74384;DHT22;62824;52.994;-3.936;2023-06-24T14:39:22;19.80;99.90
74384;DHT22;62824;52.994;-3.936;2023-06-24T14:41:47;19.80;99.90
74384;DHT22;62824;52.994;-3.936;2023-06-24T14:44:13;19.80;99.90
74384;DHT22;62824;52.994;-3.936;2023-06-24T14:46:39;19.80;99.90
74384;DHT22;62824;52.994;-3.936;2023-06-24T14:49:04;19.80;99.90
74384;DHT22;62824;52.994;-3.936;2023-06-24T14:51:30;19.80;99.90
74384;DHT22;62824;52.994;-3.936;2023-06-24T14:53:56;19.80;99.90
74384;DHT22;62824;52.994;-3.936;2023-06-24T14:56:22;19.80;99.90
74384;DHT22;62824;52.994;-3.936;2023-06-24T14:58:51;19.90;99.90
74384;DHT22;62824;52.994;-3.936;2023-06-24T15:01:20;19.80;99.90
74384;DHT22;62824;52.994;-3.936;2023-06-24T15:03:46;19.80;99.90
74384;DHT22;62824;52.994;-3.936;2023-06-24T15:06:12;19.90;99.90
74384;DHT22;62824;52.994;-3.936;2023-06-24T15:08:37;19.90;99.90
74384;DHT22;62824;52.994;-3.936;2023-06-24T15:11:03;19.90;99.90
74384;DHT22;62824;52.994;-3.936;2023-06-24T15:13:29;20.00;99.90
74384;DHT22;62824;52.994;-3.936;2023-06-24T15:15:56;20.10;99.90
74384;DHT22;62824;52.994;-3.936;2023-06-24T15:18:22;20.10;99.90
74384;DHT22;62824;52.994;-3.936;2023-06-24T15:20:48;20.30;99.90
74384;DHT22;62824;52.994;-3.936;2023-06-24T15:23:16;20.30;99.90
74384;DHT22;62824;52.994;-3.936;2023-06-24T15:25:42;20.50;99.90
74384;DHT22;62824;52.994;-3.936;2023-06-24T15:28:08;20.60;99.90
74384;DHT22;62824;52.994;-3.936;2023-06-24T15:30:33;20.70;99.90
74384;DHT22;62824;52.994;-3.936;2023-06-24T15:32:59;21.00;99.90
74384;DHT22;62824;52.994;-3.936;2023-06-24T15:35:25;21.30;99.90
74384;DHT22;62824;52.994;-3.936;2023-06-24T15:37:51;21.50;99.90
74384;DHT22;62824;52.994;-3.936;2023-06-24T15:40:16;21.70;99.90
74384;DHT22;62824;52.994;-3.936;2023-06-24T15:42:42;21.80;99.90
74384;DHT22;62824;52.994;-3.936;2023-06-24T15:45:08;21.90;99.90